Terminal Aerodrome Forecast
Issued by NWS Dodge City, KS

Home | Current Version | Previous Version | Graphics & Text | Print | Product List | Glossary Off
Versions: 1 2 3 4 5 6 7 8 9 10 11 12 13 14 15 16 17 18 19 20 21 22 23 24 25 26 27 28 29

000
FTUS43 KDDC 240533
TAFDDC
TAF
KDDC 240533Z 2406/2506 18007KT P6SM BKN200
     FM240900 VRB06KT P6SM VCTS BKN100CB WS020/22035KT
     FM241100 VRB06KT P6SM VCTS SCT100CB
     FM241300 20008KT P6SM SCT200
     FM250200 09009KT P6SM BKN140=

USA.gov is the U.S. government's official web portal to all federal, state and local government web resources and services.